European Causeway — C6RG7 — position and weather

sailwx.info

Track history (hours):
 
Tides and Currents Weather Stations Pressure Air Temp Water Temp Dewpoint Dewpoint Depression Visibility Wind Speed Wind Dir Waves Ship Positions

European Causeway

Operator: P & O Irish Sea

Last reported at 2016-Dec-08 11:34 UTC. Time now 2016-Dec-08 11:52 UTC.
Position N 54°58' W 005°25'.

Length 165 m; draft 5.5 m.

Type: Ship (hazmat cat A). MMSI: 311027000.

Date/timePositionNaut miles runAvg speedWind from/ knotsBaromVisibWave heightAir tempDewpointWater temp
2016-Dec-08 11:34N 54°58' W 005°25'1413.6
2016-Dec-08 10:33N 54°58' W 005°01'0 0.0
2016-Dec-08 09:34N 54°58' W 005°01'1110.7
2016-Dec-08 08:34N 54°58' W 005°20'1817.2
2016-Dec-08 07:32N 54°51' W 005°48'0 0.2
2016-Dec-08 06:33N 54°51' W 005°48'6 6.4
2016-Dec-08 05:33N 54°54' W 005°39'2118.4
2016-Dec-08 04:26N 54°60' W 005°04'3 2.8
2016-Dec-08 03:31N 54°58' W 005°01'0 0.0
2016-Dec-08 02:31N 54°58' W 005°01'5 5.4
2016-Dec-08 01:32N 55°02' W 005°07'1919.9
2016-Dec-08 00:34N 54°54' W 005°38'6 6.2
2016-Dec-07 23:32N 54°51' W 005°48'0 0.0
2016-Dec-07 22:33N 54°51' W 005°48'5 5.1
2016-Dec-07 21:33N 54°54' W 005°40'1716.8
2016-Dec-07 20:33N 55°01' W 005°14'8 7.5
2016-Dec-07 19:30N 54°58' W 005°01'0 0.0
2016-Dec-07 18:33N 54°58' W 005°01'1313.4
2016-Dec-07 17:33N 54°57' W 005°24'1514.0
2016-Dec-07 16:30N 54°51' W 005°48'0 0.1
2016-Dec-07 15:28N 54°51' W 005°48'1415.8
2016-Dec-07 14:33N 54°58' W 005°26'1413.9
2016-Dec-07 13:33N 54°58' W 005°02'0 0.5
2016-Dec-07 12:31N 54°58' W 005°01'1010.5
2016-Dec-07 11:33N 54°58' W 005°19'1817.7
2016-Dec-07 10:32N 54°51' W 005°48'0 0.4
2016-Dec-07 09:30N 54°51' W 005°48'1516.2
2016-Dec-07 08:33N 54°58' W 005°25'1412.4
2016-Dec-07 07:27N 54°58' W 005°01'0 0.0
2016-Dec-07 06:33N 54°58' W 005°01'5 4.7
2016-Dec-07 05:31N 55°02' W 005°06'1919.3
2016-Dec-07 04:33N 54°54' W 005°36'8 7.1
2016-Dec-07 03:29N 54°51' W 005°48'0 0.0
2016-Dec-07 02:33N 54°51' W 005°48'5 4.6
2016-Dec-07 01:33N 54°53' W 005°41'1918.9
2016-Dec-07 00:33N 55°02' W 005°12'7 7.1
2016-Dec-06 23:33N 54°58' W 005°01'0 0.0
2016-Dec-06 22:32N 54°58' W 005°01'5 4.8
2016-Dec-06 21:31N 55°02' W 005°06'1919.6
2016-Dec-06 20:33N 54°54' W 005°37'7 3.6
2016-Dec-06 18:33N 54°51' W 005°48'1514.7
2016-Dec-06 17:34N 54°59' W 005°26'1414.4
2016-Dec-06 16:33N 54°58' W 005°01'0 0.2
2016-Dec-06 15:34N 54°58' W 005°01'1110.8
2016-Dec-06 14:33N 54°58' W 005°20'1817.2
2016-Dec-06 13:32N 54°51' W 005°48'0 0.0
2016-Dec-06 12:32N 54°51' W 005°48'1312.9
2016-Dec-06 11:34N 54°57' W 005°29'1515.0
2016-Dec-06 10:33N 54°59' W 005°03'2 1.8
2016-Dec-06 09:33N 54°58' W 005°01'1010.2
2016-Dec-06 08:34N 54°58' W 005°19'1817.3
2016-Dec-06 07:30N 54°51' W 005°48'0 0.1
2016-Dec-06 06:04N 54°51' W 005°48'4 7.6
2016-Dec-06 05:33N 54°54' W 005°44'2019.7
2016-Dec-06 04:33N 55°01' W 005°12'7 7.4
2016-Dec-06 03:33N 54°58' W 005°01'0 0.0
2016-Dec-06 02:33N 54°58' W 005°01'5 4.8
2016-Dec-06 01:29N 55°02' W 005°07'1819.2
2016-Dec-06 00:33N 54°54' W 005°35'8 8.0
2016-Dec-05 23:33N 54°51' W 005°48'0 0.0
2016-Dec-05 22:32N 54°51' W 005°48'5 4.8
2016-Dec-05 21:34N 54°53' W 005°41'1616.4
2016-Dec-05 20:34N 55°00' W 005°15'9 8.2
2016-Dec-05 19:30N 54°58' W 005°01'0 0.0
2016-Dec-05 18:33N 54°58' W 005°01'1211.8
2016-Dec-05 17:33N 54°58' W 005°21'1716.6
2016-Dec-05 16:33N 54°51' W 005°48'0 0.0
2016-Dec-05 15:33N 54°51' W 005°48'1312.7
2016-Dec-05 14:33N 54°58' W 005°30'1515.1
2016-Dec-05 13:32N 54°59' W 005°03'2 2.1
2016-Dec-05 12:33N 54°58' W 005°01'1010.2
2016-Dec-05 11:33N 54°58' W 005°18'1817.6
2016-Dec-05 10:32N 54°51' W 005°48'1 0.6
2016-Dec-05 09:33N 54°51' W 005°48'1313.1
2016-Dec-05 08:33N 54°57' W 005°28'1514.1
2016-Dec-05 07:31N 54°59' W 005°03'2 1.7
2016-Dec-05 06:33N 54°58' W 005°01'6 5.6
2016-Dec-05 05:33N 55°01' W 005°08'1817.7
2016-Dec-05 04:33N 54°54' W 005°36'7 7.5
2016-Dec-05 03:33N 54°51' W 005°48'0 0.0
2016-Dec-05 02:33N 54°51' W 005°48'0 0.0
2016-Dec-05 01:32N 54°51' W 005°48'5 5.4
2016-Dec-05 00:33N 54°54' W 005°40'1716.9
2016-Dec-04 23:33N 55°01' W 005°14'8 7.9
2016-Dec-04 22:34N 54°58' W 005°01'5 5.0
2016-Dec-04 21:33N 55°01' W 005°07'1919.3
2016-Dec-04 20:34N 54°54' W 005°37'7 6.6
2016-Dec-04 19:32N 54°51' W 005°48'0 0.0
2016-Dec-04 18:33N 54°51' W 005°48'1313.2
2016-Dec-04 17:33N 54°57' W 005°28'1414.5
2016-Dec-04 16:33N 54°59' W 005°03'2 1.9
2016-Dec-04 15:33N 54°58' W 005°01'5 4.7
2016-Dec-04 14:26N 55°02' W 005°07'1719.6
2016-Dec-04 13:33N 54°54' W 005°35'8 8.4
2016-Dec-04 12:33N 54°51' W 005°48'0 0.0
2016-Dec-04 11:32N 54°51' W 005°48'0 0.0
2016-Dec-04 10:32N 54°51' W 005°48'0 0.0
2016-Dec-04 09:33N 54°51' W 005°48'1313.2
2016-Dec-04 08:33N 54°57' W 005°28'1514.0
2016-Dec-04 07:30N 54°59' W 005°03'2 1.7
2016-Dec-04 06:33N 54°58' W 005°01'0 0.0
2016-Dec-04 05:33N 54°58' W 005°01'0 0.0
2016-Dec-04 04:34N 54°58' W 005°01'0 0.0
2016-Dec-04 03:34N 54°58' W 005°01'0 0.0
2016-Dec-04 02:30N 54°58' W 005°01'0 0.0
2016-Dec-04 01:33N 54°58' W 005°01'0 0.0
2016-Dec-04 00:33N 54°58' W 005°01'0 0.0
2016-Dec-03 23:32N 54°58' W 005°01'0 0.0
2016-Dec-03 22:33N 54°58' W 005°01'8 8.5
2016-Dec-03 21:33N 54°60' W 005°15'1918.0
2016-Dec-03 20:31N 54°52' W 005°45'2 2.4
2016-Dec-03 19:33N 54°51' W 005°48'0 0.0
2016-Dec-03 18:29N 54°51' W 005°48'1111.9
2016-Dec-03 17:34N 54°56' W 005°31'1716.3
2016-Dec-03 16:32N 54°59' W 005°03'2 1.6
2016-Dec-03 15:33N 54°58' W 005°01'1212.3
2016-Dec-03 14:33N 54°58' W 005°22'1615.9
2016-Dec-03 13:32N 54°51' W 005°48'0 0.0
2016-Dec-03 12:33N 54°51' W 005°48'1313.5
2016-Dec-03 11:33N 54°57' W 005°27'1514.8
2016-Dec-03 10:34N 54°58' W 005°02'1 0.6
2016-Dec-03 09:34N 54°58' W 005°01'1010.0
2016-Dec-03 08:33N 54°59' W 005°18'1816.9
2016-Dec-03 07:29N 54°52' W 005°47'1 1.0
2016-Dec-03 06:34N 54°51' W 005°48'5 4.9
2016-Dec-03 05:34N 54°53' W 005°41'1717.3
2016-Dec-03 04:34N 55°01' W 005°13'8 7.9
2016-Dec-03 03:33N 54°58' W 005°01'0 0.0
2016-Dec-03 02:25N 54°58' W 005°01'5 5.5
2016-Dec-03 01:33N 55°02' W 005°06'1616.5
2016-Dec-03 00:33N 54°55' W 005°32'1010.0
2016-Dec-02 23:33N 54°51' W 005°48'0 0.0
2016-Dec-02 22:33N 54°51' W 005°48'5 5.4
2016-Dec-02 21:33N 54°54' W 005°40'1818.2
2016-Dec-02 20:33N 55°01' W 005°11'7 6.6
2016-Dec-02 19:31N 54°58' W 005°01'0 0.0
2016-Dec-02 18:33N 54°58' W 005°01'1111.2
2016-Dec-02 17:33N 54°58' W 005°20'1717.1
2016-Dec-02 16:33N 54°51' W 005°48'0 0.1
2016-Dec-02 15:33N 54°51' W 005°48'1414.4
2016-Dec-02 14:34N 54°58' W 005°26'1413.8
2016-Dec-02 13:31N 54°58' W 005°01'0 0.0
2016-Dec-02 12:22N 54°58' W 005°01'1012.7
2016-Dec-02 11:33N 54°59' W 005°19'1818.5
2016-Dec-02 10:34N 54°51' W 005°48'0 0.1
2016-Dec-02 09:33N 54°51' W 005°48'1815.0
2016-Dec-02 08:20N 54°59' W 005°19'1113.7
2016-Dec-02 07:33N 54°58' W 005°01'0 0.1
2016-Dec-02 06:29N 54°58' W 005°01'5 5.3
2016-Dec-02 05:30N 55°01' W 005°07'1718.5
2016-Dec-02 04:33N 54°55' W 005°35'8 8.1
2016-Dec-02 03:32N 54°51' W 005°48'0 0.0
2016-Dec-02 02:23N 54°51' W 005°48'4 5.2
2016-Dec-02 01:33N 54°53' W 005°42'1818.2
2016-Dec-02 00:34N 55°01' W 005°13'8 7.4
2016-Dec-01 23:31N 54°58' W 005°01'0 0.0
2016-Dec-01 22:25N 54°58' W 005°01'5 5.8
2016-Dec-01 21:33N 55°02' W 005°07'1818.2
2016-Dec-01 20:33N 54°54' W 005°35'8 7.9
2016-Dec-01 19:33N 54°51' W 005°48'0 0.0
2016-Dec-01 18:32N 54°51' W 005°48'1413.8
2016-Dec-01 17:33N 54°58' W 005°28'1515.0
2016-Dec-01 16:33N 54°58' W 005°02'1 0.9
2016-Dec-01 15:33N 54°58' W 005°01'1212.1
2016-Dec-01 14:33N 54°58' W 005°22'1616.4
2016-Dec-01 13:34N 54°51' W 005°48'0 0.0
2016-Dec-01 12:33N 54°51' W 005°48'1414.3
2016-Dec-01 11:34N 54°58' W 005°26'1414.1
2016-Dec-01 10:33N 54°58' W 005°01'0 0.3
2016-Dec-01 09:23N 54°58' W 005°01'1011.6
2016-Dec-01 08:34N 54°59' W 005°18'1817.9
2016-Dec-01 07:33N 54°52' W 005°47'1 1.3
2016-Dec-01 06:33N 54°51' W 005°48'5 5.3
2016-Dec-01 05:33N 54°54' W 005°40'1716.9
2016-Dec-01 04:32N 55°01' W 005°13'8 7.9
2016-Dec-01 03:33N 54°58' W 005°01'0 0.0
2016-Dec-01 02:33N 54°58' W 005°01'5 4.6
2016-Dec-01 01:31N 55°02' W 005°06'2020.4
2016-Dec-01 00:33N 54°54' W 005°37'7 6.8
2016-Nov-30 23:33N 54°51' W 005°48'0 0.0
2016-Nov-30 22:33N 54°51' W 005°48'8 7.4
2016-Nov-30 21:26N 54°55' W 005°35'1617.7
2016-Nov-30 20:33N 55°01' W 005°11'7 6.6
2016-Nov-30 19:33N 54°58' W 005°01'0 0.0
2016-Nov-30 18:33N 54°58' W 005°01'1010.3
2016-Nov-30 17:33N 54°58' W 005°19'1817.5
2016-Nov-30 16:31N 54°51' W 005°48'0 0.1
2016-Nov-30 15:33N 54°51' W 005°48'1313.0
2016-Nov-30 14:31N 54°57' W 005°27'1414.7
2016-Nov-30 13:33N 54°59' W 005°03'2 1.7
2016-Nov-30 12:33N 54°58' W 005°01'1110.9
2016-Nov-30 11:33N 54°58' W 005°20'1817.5
2016-Nov-30 10:33N 54°51' W 005°48'0 0.1
2016-Nov-30 09:33N 54°51' W 005°48'1313.0
2016-Nov-30 08:34N 54°57' W 005°28'1514.0
2016-Nov-30 07:30N 54°59' W 005°03'2 1.7
2016-Nov-30 06:33N 54°58' W 005°01'5 4.9
2016-Nov-30 05:31N 55°02' W 005°07'1819.1
2016-Nov-30 04:33N 54°54' W 005°36'8 7.6
2016-Nov-30 03:33N 54°51' W 005°48'0 0.0
2016-Nov-30 02:33N 54°51' W 005°48'5 5.0
2016-Nov-30 01:33N 54°54' W 005°41'1616.4
2016-Nov-30 00:33N 55°01' W 005°15'9 7.6
2016-Nov-29 23:25N 54°58' W 005°01'6 2.9
2016-Nov-29 21:28N 55°01' W 005°09'1617.7
2016-Nov-29 20:33N 54°54' W 005°34'9 8.6
2016-Nov-29 19:33N 54°51' W 005°48'0 0.0
2016-Nov-29 18:33N 54°51' W 005°48'1413.8
2016-Nov-29 17:34N 54°58' W 005°27'1514.8
2016-Nov-29 16:34N 54°58' W 005°01'0 0.3
2016-Nov-29 15:33N 54°58' W 005°01'1110.9
2016-Nov-29 14:34N 54°59' W 005°20'1817.6
2016-Nov-29 13:34N 54°51' W 005°48'1 0.7
2016-Nov-29 12:33N 54°51' W 005°48'1312.9
2016-Nov-29 11:33N 54°57' W 005°28'1514.8
2016-Nov-29 10:33N 54°59' W 005°02'1 1.3
2016-Nov-29 09:33N 54°58' W 005°01'10 9.8
2016-Nov-29 08:33N 54°59' W 005°18'1817.0
2016-Nov-29 07:31N 54°52' W 005°46'1 1.5
2016-Nov-29 06:34N 54°51' W 005°48'5 4.9
2016-Nov-29 05:33N 54°54' W 005°41'1616.1
2016-Nov-29 04:33N 55°00' W 005°15'9 8.4
2016-Nov-29 03:32N 54°58' W 005°01'0 0.0
2016-Nov-29 02:32N 54°58' W 005°01'5 4.9
2016-Nov-29 01:28N 55°02' W 005°07'1617.8
2016-Nov-29 00:33N 54°55' W 005°33'9 9.4
2016-Nov-28 23:33N 54°51' W 005°48'0 0.0
2016-Nov-28 22:33N 54°51' W 005°48'5 5.3
2016-Nov-28 21:31N 54°54' W 005°40'2215.8
2016-Nov-28 20:07N 54°59' W 005°03'1 2.3
2016-Nov-28 19:29N 54°58' W 005°01'0 0.0
2016-Nov-28 18:32N 54°58' W 005°01'1110.9
2016-Nov-28 17:33N 54°58' W 005°19'1817.3
2016-Nov-28 16:32N 54°51' W 005°48'0 0.2
2016-Nov-28 15:33N 54°51' W 005°48'1312.5
2016-Nov-28 14:32N 54°57' W 005°28'1515.0
2016-Nov-28 13:32N 54°59' W 005°02'1 1.0
2016-Nov-28 12:20N 54°58' W 005°01'1013.6
2016-Nov-28 11:34N 54°59' W 005°19'  
Track history (hours):
 
Tides and Currents Weather Stations Pressure Air Temp Water Temp Dewpoint Dewpoint Depression Visibility Wind Speed Wind Dir Waves Ship Positions

European Causeway

Operator: P & O Irish Sea

Last reported at 2016-Dec-08 11:34 UTC. Time now 2016-Dec-08 11:52 UTC.
Position N 54°58' W 005°25'.

Length 165 m; draft 5.5 m.

Type: Ship (hazmat cat A). MMSI: 311027000.

Date/timePositionNaut miles runAvg speedWind from/ knotsBaromVisibWave heightAir tempDewpointWater temp
2016-Dec-08 11:34N 54°58' W 005°25'1413.6
2016-Dec-08 10:33N 54°58' W 005°01'0 0.0
2016-Dec-08 09:34N 54°58' W 005°01'1110.7
2016-Dec-08 08:34N 54°58' W 005°20'1817.2
2016-Dec-08 07:32N 54°51' W 005°48'0 0.2
2016-Dec-08 06:33N 54°51' W 005°48'6 6.4
2016-Dec-08 05:33N 54°54' W 005°39'2118.4
2016-Dec-08 04:26N 54°60' W 005°04'3 2.8
2016-Dec-08 03:31N 54°58' W 005°01'0 0.0
2016-Dec-08 02:31N 54°58' W 005°01'5 5.4
2016-Dec-08 01:32N 55°02' W 005°07'1919.9
2016-Dec-08 00:34N 54°54' W 005°38'6 6.2
2016-Dec-07 23:32N 54°51' W 005°48'0 0.0
2016-Dec-07 22:33N 54°51' W 005°48'5 5.1
2016-Dec-07 21:33N 54°54' W 005°40'1716.8
2016-Dec-07 20:33N 55°01' W 005°14'8 7.5
2016-Dec-07 19:30N 54°58' W 005°01'0 0.0
2016-Dec-07 18:33N 54°58' W 005°01'1313.4
2016-Dec-07 17:33N 54°57' W 005°24'1514.0
2016-Dec-07 16:30N 54°51' W 005°48'0 0.1
2016-Dec-07 15:28N 54°51' W 005°48'1415.8
2016-Dec-07 14:33N 54°58' W 005°26'1413.9
2016-Dec-07 13:33N 54°58' W 005°02'0 0.5
2016-Dec-07 12:31N 54°58' W 005°01'1010.5
2016-Dec-07 11:33N 54°58' W 005°19'1817.7
2016-Dec-07 10:32N 54°51' W 005°48'0 0.4
2016-Dec-07 09:30N 54°51' W 005°48'1516.2
2016-Dec-07 08:33N 54°58' W 005°25'1412.4
2016-Dec-07 07:27N 54°58' W 005°01'0 0.0
2016-Dec-07 06:33N 54°58' W 005°01'5 4.7
2016-Dec-07 05:31N 55°02' W 005°06'1919.3
2016-Dec-07 04:33N 54°54' W 005°36'8 7.1
2016-Dec-07 03:29N 54°51' W 005°48'0 0.0
2016-Dec-07 02:33N 54°51' W 005°48'5 4.6
2016-Dec-07 01:33N 54°53' W 005°41'1918.9
2016-Dec-07 00:33N 55°02' W 005°12'7 7.1
2016-Dec-06 23:33N 54°58' W 005°01'0 0.0
2016-Dec-06 22:32N 54°58' W 005°01'5 4.8
2016-Dec-06 21:31N 55°02' W 005°06'1919.6
2016-Dec-06 20:33N 54°54' W 005°37'7 3.6
2016-Dec-06 18:33N 54°51' W 005°48'1514.7
2016-Dec-06 17:34N 54°59' W 005°26'1414.4
2016-Dec-06 16:33N 54°58' W 005°01'0 0.2
2016-Dec-06 15:34N 54°58' W 005°01'1110.8
2016-Dec-06 14:33N 54°58' W 005°20'1817.2
2016-Dec-06 13:32N 54°51' W 005°48'0 0.0
2016-Dec-06 12:32N 54°51' W 005°48'1312.9
2016-Dec-06 11:34N 54°57' W 005°29'1515.0
2016-Dec-06 10:33N 54°59' W 005°03'2 1.8
2016-Dec-06 09:33N 54°58' W 005°01'1010.2
2016-Dec-06 08:34N 54°58' W 005°19'1817.3
2016-Dec-06 07:30N 54°51' W 005°48'0 0.1
2016-Dec-06 06:04N 54°51' W 005°48'4 7.6
2016-Dec-06 05:33N 54°54' W 005°44'2019.7
2016-Dec-06 04:33N 55°01' W 005°12'7 7.4
2016-Dec-06 03:33N 54°58' W 005°01'0 0.0
2016-Dec-06 02:33N 54°58' W 005°01'5 4.8
2016-Dec-06 01:29N 55°02' W 005°07'1819.2
2016-Dec-06 00:33N 54°54' W 005°35'8 8.0
2016-Dec-05 23:33N 54°51' W 005°48'0 0.0
2016-Dec-05 22:32N 54°51' W 005°48'5 4.8
2016-Dec-05 21:34N 54°53' W 005°41'1616.4
2016-Dec-05 20:34N 55°00' W 005°15'9 8.2
2016-Dec-05 19:30N 54°58' W 005°01'0 0.0
2016-Dec-05 18:33N 54°58' W 005°01'1211.8
2016-Dec-05 17:33N 54°58' W 005°21'1716.6
2016-Dec-05 16:33N 54°51' W 005°48'0 0.0
2016-Dec-05 15:33N 54°51' W 005°48'1312.7
2016-Dec-05 14:33N 54°58' W 005°30'1515.1
2016-Dec-05 13:32N 54°59' W 005°03'2 2.1
2016-Dec-05 12:33N 54°58' W 005°01'1010.2
2016-Dec-05 11:33N 54°58' W 005°18'1817.6
2016-Dec-05 10:32N 54°51' W 005°48'1 0.6
2016-Dec-05 09:33N 54°51' W 005°48'1313.1
2016-Dec-05 08:33N 54°57' W 005°28'1514.1
2016-Dec-05 07:31N 54°59' W 005°03'2 1.7
2016-Dec-05 06:33N 54°58' W 005°01'6 5.6
2016-Dec-05 05:33N 55°01' W 005°08'1817.7
2016-Dec-05 04:33N 54°54' W 005°36'7 7.5
2016-Dec-05 03:33N 54°51' W 005°48'0 0.0
2016-Dec-05 02:33N 54°51' W 005°48'0 0.0
2016-Dec-05 01:32N 54°51' W 005°48'5 5.4
2016-Dec-05 00:33N 54°54' W 005°40'1716.9
2016-Dec-04 23:33N 55°01' W 005°14'8 7.9
2016-Dec-04 22:34N 54°58' W 005°01'5 5.0
2016-Dec-04 21:33N 55°01' W 005°07'1919.3
2016-Dec-04 20:34N 54°54' W 005°37'7 6.6
2016-Dec-04 19:32N 54°51' W 005°48'0 0.0
2016-Dec-04 18:33N 54°51' W 005°48'1313.2
2016-Dec-04 17:33N 54°57' W 005°28'1414.5
2016-Dec-04 16:33N 54°59' W 005°03'2 1.9
2016-Dec-04 15:33N 54°58' W 005°01'5 4.7
2016-Dec-04 14:26N 55°02' W 005°07'1719.6
2016-Dec-04 13:33N 54°54' W 005°35'8 8.4
2016-Dec-04 12:33N 54°51' W 005°48'0 0.0
2016-Dec-04 11:32N 54°51' W 005°48'0 0.0
2016-Dec-04 10:32N 54°51' W 005°48'0 0.0
2016-Dec-04 09:33N 54°51' W 005°48'1313.2
2016-Dec-04 08:33N 54°57' W 005°28'1514.0
2016-Dec-04 07:30N 54°59' W 005°03'2 1.7
2016-Dec-04 06:33N 54°58' W 005°01'0 0.0
2016-Dec-04 05:33N 54°58' W 005°01'0 0.0
2016-Dec-04 04:34N 54°58' W 005°01'0 0.0
2016-Dec-04 03:34N 54°58' W 005°01'0 0.0
2016-Dec-04 02:30N 54°58' W 005°01'0 0.0
2016-Dec-04 01:33N 54°58' W 005°01'0 0.0
2016-Dec-04 00:33N 54°58' W 005°01'0 0.0
2016-Dec-03 23:32N 54°58' W 005°01'0 0.0
2016-Dec-03 22:33N 54°58' W 005°01'8 8.5
2016-Dec-03 21:33N 54°60' W 005°15'1918.0
2016-Dec-03 20:31N 54°52' W 005°45'2 2.4
2016-Dec-03 19:33N 54°51' W 005°48'0 0.0
2016-Dec-03 18:29N 54°51' W 005°48'1111.9
2016-Dec-03 17:34N 54°56' W 005°31'1716.3
2016-Dec-03 16:32N 54°59' W 005°03'2 1.6
2016-Dec-03 15:33N 54°58' W 005°01'1212.3
2016-Dec-03 14:33N 54°58' W 005°22'1615.9
2016-Dec-03 13:32N 54°51' W 005°48'0 0.0
2016-Dec-03 12:33N 54°51' W 005°48'1313.5
2016-Dec-03 11:33N 54°57' W 005°27'1514.8
2016-Dec-03 10:34N 54°58' W 005°02'1 0.6
2016-Dec-03 09:34N 54°58' W 005°01'1010.0
2016-Dec-03 08:33N 54°59' W 005°18'1816.9
2016-Dec-03 07:29N 54°52' W 005°47'1 1.0
2016-Dec-03 06:34N 54°51' W 005°48'5 4.9
2016-Dec-03 05:34N 54°53' W 005°41'1717.3
2016-Dec-03 04:34N 55°01' W 005°13'8 7.9
2016-Dec-03 03:33N 54°58' W 005°01'0 0.0
2016-Dec-03 02:25N 54°58' W 005°01'5 5.5
2016-Dec-03 01:33N 55°02' W 005°06'1616.5
2016-Dec-03 00:33N 54°55' W 005°32'1010.0
2016-Dec-02 23:33N 54°51' W 005°48'0 0.0
2016-Dec-02 22:33N 54°51' W 005°48'5 5.4
2016-Dec-02 21:33N 54°54' W 005°40'1818.2
2016-Dec-02 20:33N 55°01' W 005°11'7 6.6
2016-Dec-02 19:31N 54°58' W 005°01'0 0.0
2016-Dec-02 18:33N 54°58' W 005°01'1111.2
2016-Dec-02 17:33N 54°58' W 005°20'1717.1
2016-Dec-02 16:33N 54°51' W 005°48'0 0.1
2016-Dec-02 15:33N 54°51' W 005°48'1414.4
2016-Dec-02 14:34N 54°58' W 005°26'1413.8
2016-Dec-02 13:31N 54°58' W 005°01'0 0.0
2016-Dec-02 12:22N 54°58' W 005°01'1012.7
2016-Dec-02 11:33N 54°59' W 005°19'1818.5
2016-Dec-02 10:34N 54°51' W 005°48'0 0.1
2016-Dec-02 09:33N 54°51' W 005°48'1815.0
2016-Dec-02 08:20N 54°59' W 005°19'1113.7
2016-Dec-02 07:33N 54°58' W 005°01'0 0.1
2016-Dec-02 06:29N 54°58' W 005°01'5 5.3
2016-Dec-02 05:30N 55°01' W 005°07'1718.5
2016-Dec-02 04:33N 54°55' W 005°35'8 8.1
2016-Dec-02 03:32N 54°51' W 005°48'0 0.0
2016-Dec-02 02:23N 54°51' W 005°48'4 5.2
2016-Dec-02 01:33N 54°53' W 005°42'1818.2
2016-Dec-02 00:34N 55°01' W 005°13'8 7.4
2016-Dec-01 23:31N 54°58' W 005°01'0 0.0
2016-Dec-01 22:25N 54°58' W 005°01'5 5.8
2016-Dec-01 21:33N 55°02' W 005°07'1818.2
2016-Dec-01 20:33N 54°54' W 005°35'8 7.9
2016-Dec-01 19:33N 54°51' W 005°48'0 0.0
2016-Dec-01 18:32N 54°51' W 005°48'1413.8
2016-Dec-01 17:33N 54°58' W 005°28'1515.0
2016-Dec-01 16:33N 54°58' W 005°02'1 0.9
2016-Dec-01 15:33N 54°58' W 005°01'1212.1
2016-Dec-01 14:33N 54°58' W 005°22'1616.4
2016-Dec-01 13:34N 54°51' W 005°48'0 0.0
2016-Dec-01 12:33N 54°51' W 005°48'1414.3
2016-Dec-01 11:34N 54°58' W 005°26'1414.1
2016-Dec-01 10:33N 54°58' W 005°01'0 0.3
2016-Dec-01 09:23N 54°58' W 005°01'1011.6
2016-Dec-01 08:34N 54°59' W 005°18'1817.9
2016-Dec-01 07:33N 54°52' W 005°47'1 1.3
2016-Dec-01 06:33N 54°51' W 005°48'5 5.3
2016-Dec-01 05:33N 54°54' W 005°40'1716.9
2016-Dec-01 04:32N 55°01' W 005°13'8 7.9
2016-Dec-01 03:33N 54°58' W 005°01'0 0.0
2016-Dec-01 02:33N 54°58' W 005°01'5 4.6
2016-Dec-01 01:31N 55°02' W 005°06'2020.4
2016-Dec-01 00:33N 54°54' W 005°37'7 6.8
2016-Nov-30 23:33N 54°51' W 005°48'0 0.0
2016-Nov-30 22:33N 54°51' W 005°48'8 7.4
2016-Nov-30 21:26N 54°55' W 005°35'1617.7
2016-Nov-30 20:33N 55°01' W 005°11'7 6.6
2016-Nov-30 19:33N 54°58' W 005°01'0 0.0
2016-Nov-30 18:33N 54°58' W 005°01'1010.3
2016-Nov-30 17:33N 54°58' W 005°19'1817.5
2016-Nov-30 16:31N 54°51' W 005°48'0 0.1
2016-Nov-30 15:33N 54°51' W 005°48'1313.0
2016-Nov-30 14:31N 54°57' W 005°27'1414.7
2016-Nov-30 13:33N 54°59' W 005°03'2 1.7
2016-Nov-30 12:33N 54°58' W 005°01'1110.9
2016-Nov-30 11:33N 54°58' W 005°20'1817.5
2016-Nov-30 10:33N 54°51' W 005°48'0 0.1
2016-Nov-30 09:33N 54°51' W 005°48'1313.0
2016-Nov-30 08:34N 54°57' W 005°28'1514.0
2016-Nov-30 07:30N 54°59' W 005°03'2 1.7
2016-Nov-30 06:33N 54°58' W 005°01'5 4.9
2016-Nov-30 05:31N 55°02' W 005°07'1819.1
2016-Nov-30 04:33N 54°54' W 005°36'8 7.6
2016-Nov-30 03:33N 54°51' W 005°48'0 0.0
2016-Nov-30 02:33N 54°51' W 005°48'5 5.0
2016-Nov-30 01:33N 54°54' W 005°41'1616.4
2016-Nov-30 00:33N 55°01' W 005°15'9 7.6
2016-Nov-29 23:25N 54°58' W 005°01'6 2.9
2016-Nov-29 21:28N 55°01' W 005°09'1617.7
2016-Nov-29 20:33N 54°54' W 005°34'9 8.6
2016-Nov-29 19:33N 54°51' W 005°48'0 0.0
2016-Nov-29 18:33N 54°51' W 005°48'1413.8
2016-Nov-29 17:34N 54°58' W 005°27'1514.8
2016-Nov-29 16:34N 54°58' W 005°01'0 0.3
2016-Nov-29 15:33N 54°58' W 005°01'1110.9
2016-Nov-29 14:34N 54°59' W 005°20'1817.6
2016-Nov-29 13:34N 54°51' W 005°48'1 0.7
2016-Nov-29 12:33N 54°51' W 005°48'1312.9
2016-Nov-29 11:33N 54°57' W 005°28'1514.8
2016-Nov-29 10:33N 54°59' W 005°02'1 1.3
2016-Nov-29 09:33N 54°58' W 005°01'10 9.8
2016-Nov-29 08:33N 54°59' W 005°18'1817.0
2016-Nov-29 07:31N 54°52' W 005°46'1 1.5
2016-Nov-29 06:34N 54°51' W 005°48'5 4.9
2016-Nov-29 05:33N 54°54' W 005°41'1616.1
2016-Nov-29 04:33N 55°00' W 005°15'9 8.4
2016-Nov-29 03:32N 54°58' W 005°01'0 0.0
2016-Nov-29 02:32N 54°58' W 005°01'5 4.9
2016-Nov-29 01:28N 55°02' W 005°07'1617.8
2016-Nov-29 00:33N 54°55' W 005°33'9 9.4
2016-Nov-28 23:33N 54°51' W 005°48'0 0.0
2016-Nov-28 22:33N 54°51' W 005°48'5 5.3
2016-Nov-28 21:31N 54°54' W 005°40'2215.8
2016-Nov-28 20:07N 54°59' W 005°03'1 2.3
2016-Nov-28 19:29N 54°58' W 005°01'0 0.0
2016-Nov-28 18:32N 54°58' W 005°01'1110.9
2016-Nov-28 17:33N 54°58' W 005°19'1817.3
2016-Nov-28 16:32N 54°51' W 005°48'0 0.2
2016-Nov-28 15:33N 54°51' W 005°48'1312.5
2016-Nov-28 14:32N 54°57' W 005°28'1515.0
2016-Nov-28 13:32N 54°59' W 005°02'1 1.0
2016-Nov-28 12:20N 54°58' W 005°01'1013.6
2016-Nov-28 11:34N 54°59' W 005°19'  

Dump ship's entire track history